メインページ
METAR-TAF:

METAR-TAF

空港 :

ジュノー, アラスカ州, アメリカ合衆国

ジュノー国際空港

緯度: 58-21-17N, 経度: 134-34-34W, 海抜: 6m

現時点の気象観測

当レポートは1時間10分前の20:53(UTC)に作成
西の風 6kt
気温 -1°C
湿度 80%
気圧 1025 hPa
視程: 16.1km
高度2900ftの雲はほとんどない
高度10000ftの雲は散在している
高度20000ftの千切れ雲あり

METAR: PAJN 192053Z 26006KT 10SM FEW029 SCT100 BKN200 M01/M04 A3027 RMK AO2 SLP251 T10061039 58009

時間: 13:03 (22:03 UTC)

予報

当レポートは4時間40分前の17:23(UTC)に作成
予報は19日の 18時(UTC)から 20日の 18時(UTC)まで有効
変向風 3kt
視程: 10km
高度2500ftの雲は散在している
高度4000ftの千切れ雲あり
19日の 18時(UTC)から 19日の 20時(UTC)まで一時的に
高度2500ftの千切れ雲あり
19日の 2000時(UTC)から
東/北東の風 5kt
視程: 10km
高度15000ftの千切れ雲あり

TAF: PAJN 191723Z 1918/2018 VRB03KT P6SM SCT025 BKN040 TEMPO 1918/1920 BKN025 FM192000 07005KT P6SM BKN150

4,000以上の空港の気象観測と天気予報(METAR報とTAF報)

利用可能な観測所は地図上に黄色い丸と赤い丸で示す。

丸の上にカーソルを重ねると観測所名を参照できる。

次にクリックすると気象観測と天気予報を参照できる。

マップの切り替え:黒色「×」印の緑ボタンをクリックして拡大、「-」印の緑ボタンをクリックして縮小、緑色の三角印をクリックして隣りの地図に切り替え


METAR-TAF: